Ypsilanti, MI

1:53 AM EDT on April 21, 2015 (GMT -0400)
Custer | | Change Station
CLOSE
Current Station
Airport
Location: Monroe,
Elevation: 617 ft
Nearby Weather Stations

Elev 617 ft 41.94 °N, 83.43 °W | Updated 21 minutes ago

Overcast
Overcast
46 °F
Feels Like 43 °F
N
7
Wind Variable Wind from WSW
Gusts 17 mph

Today
High -- | Low -- °F
--% Chance of Precip.
Yesterday
High -- | Low -- °F
Precip. -- in
6:44 AM 8:22 PM
Waxing Crescent, 8% visible
Pressure 29.60 in
Visibility 10.0 miles
Clouds Scattered Clouds 3800 ft
Mostly Cloudy 5000 ft
Overcast 5500 ft
Windchill 43 °F
Dew Point 37 °F
Humidity 71%
Rainfall 0.00 in
Snow Depth Not available.
UV 0 out of 12
Pollen 6.80 out of 12
Air Quality Not available.
Flu Activity Regional
METAR KTTF 210532Z AUTO 25006G15KT 10SM SCT038 BKN050 OVC055 08/03 A2960 RMK AO2

More Conditions Fewer Conditions

Pressure 29.60 in
Visibility 10.0 miles
Clouds Scattered Clouds 3800 ft
Mostly Cloudy 5000 ft
Overcast 5500 ft
Windchill 43 °F
Dew Point 37 °F
Humidity 71%
Rainfall 0.00 in
Snow Depth Not available.
UV 0 out of 12
Pollen 6.80 out of 12
Air Quality Not available.
Flu Activity Regional
METAR KTTF 210532Z AUTO 25006G15KT 10SM SCT038 BKN050 OVC055 08/03 A2960 RMK AO2

More Conditions Fewer Conditions

10-Day Weather Forecast

Almanac

Astronomy

Apr. 21, 2015 Rise Set
Actual Time
Civil Twilight
Nautical Twilight
Astronomical Twilight
Moon
Length of Visible Light
Length of Day
Tomorrow will be .
, % of the Moon is Illuminated

Today's Extremes

State Highs State Lows

Community

WunderPhotos

Upload Photos

1,815,316 photos uploaded!

WunderBlogs® & News

Nearby

Air Quality

  Air Quality AQ Index Pollutant
Not available.

Snow Depth

Station Depth Elevation

Earthquake Activity

City Distance Mag. Time & Date
Minimum magnitude displayed is 2.5.

Coastal Water Temperatures

Place Temperature

Stations

Nearby Weather Stations

Station Location Temp. Windchill Dew Point Humidity Wind Precip. Elev Updated Type